createdAt,value
2022-08-30T00:01:03.052Z,1.75
2022-08-30T00:03:38.640Z,2.30
2022-08-30T00:06:12.003Z,2.65
2022-08-30T00:08:50.643Z,1.38
2022-08-30T00:11:25.631Z,1.60
2022-08-30T00:13:59.949Z,1.98
2022-08-30T00:16:33.255Z,1.50
2022-08-30T00:19:06.013Z,1.63
2022-08-30T00:21:39.466Z,2.55
2022-08-30T00:24:13.600Z,1.60
2022-08-30T00:26:46.841Z,1.33
2022-08-30T00:29:19.840Z,1.60
2022-08-30T00:31:52.700Z,1.70
2022-08-30T00:34:25.597Z,1.52
2022-08-30T00:36:59.586Z,1.80
2022-08-30T00:39:33.686Z,1.58
2022-08-30T00:42:06.878Z,1.55
2022-08-30T00:44:40.237Z,1.70
2022-08-30T00:47:13.794Z,1.27
2022-08-30T00:49:49.073Z,1.63
2022-08-30T00:52:24.716Z,1.52
2022-08-30T00:54:58.809Z,1.38
2022-08-30T00:57:32.850Z,2.47
2022-08-30T01:00:08.768Z,1.48
2022-08-30T01:02:42.378Z,1.75
2022-08-30T01:05:16.274Z,1.77
2022-08-30T01:07:49.793Z,1.50
2022-08-30T01:10:24.092Z,1.42
2022-08-30T01:12:57.314Z,1.60
2022-08-30T01:15:32.561Z,1.40
2022-08-30T01:18:07.889Z,1.17
2022-08-30T01:20:49.212Z,1.40
2022-08-30T01:23:26.962Z,1.50
2022-08-30T01:26:03.194Z,1.30
2022-08-30T01:28:36.534Z,1.20
2022-08-30T01:31:09.662Z,1.33
2022-08-30T01:33:42.698Z,1.50
2022-08-30T01:38:52.107Z,1.60
2022-08-30T01:41:27.365Z,1.40
2022-08-30T01:44:03.120Z,1.55
2022-08-30T01:46:39.878Z,1.40
2022-08-30T01:49:16.182Z,1.52
2022-08-30T01:51:48.942Z,1.10
2022-08-30T01:54:27.486Z,1.63
2022-08-30T01:57:10.876Z,1.70
2022-08-30T01:59:47.704Z,1.13
2022-08-30T02:02:24.498Z,1.42
2022-08-30T02:04:58.909Z,1.45
2022-08-30T02:07:31.892Z,1.40
2022-08-30T02:12:39.177Z,1.40
2022-08-30T02:15:13.003Z,1.85
2022-08-30T02:17:45.779Z,1.70
2022-08-30T02:20:19.040Z,1.58
2022-08-30T02:22:51.806Z,1.90
2022-08-30T02:25:25.953Z,1.50
2022-08-30T02:27:58.725Z,1.50
2022-08-30T02:30:32.159Z,1.40
2022-08-30T02:33:05.246Z,1.10
2022-08-30T02:38:11.553Z,1.53
2022-08-30T02:40:46.673Z,1.40
2022-08-30T02:43:19.703Z,1.58
2022-08-30T02:48:25.771Z,1.42
2022-08-30T02:50:58.591Z,1.30
2022-08-30T02:53:31.442Z,1.20
2022-08-30T02:58:40.006Z,1.35
2022-08-30T03:01:15.068Z,1.30
2022-08-30T03:03:49.108Z,1.60
2022-08-30T03:06:21.955Z,1.50
2022-08-30T03:08:54.692Z,1.58
2022-08-30T03:11:30.037Z,1.00
2022-08-30T03:14:03.208Z,1.75
2022-08-30T03:16:36.043Z,1.30
2022-08-30T03:19:08.811Z,1.55
2022-08-30T03:21:41.597Z,1.20
2022-08-30T03:24:14.602Z,1.80
2022-08-30T03:29:21.314Z,1.40
2022-08-30T03:31:54.155Z,1.35
2022-08-30T03:34:27.896Z,1.23
2022-08-30T03:37:01.379Z,1.52
2022-08-30T03:39:34.705Z,1.20
2022-08-30T03:42:09.326Z,1.20
2022-08-30T03:44:42.154Z,1.27
2022-08-30T03:47:15.039Z,1.17
2022-08-30T03:49:47.750Z,1.58
2022-08-30T03:52:20.460Z,1.83
2022-08-30T03:54:53.214Z,1.52
2022-08-30T03:57:27.660Z,1.83
2022-08-30T04:00:00.364Z,1.40
2022-08-30T04:02:33.298Z,1.50
2022-08-30T04:07:39.704Z,1.77
2022-08-30T04:10:13.016Z,1.50
2022-08-30T04:12:49.792Z,1.67
2022-08-30T04:15:22.693Z,1.85
2022-08-30T04:17:55.499Z,1.95
2022-08-30T04:20:28.675Z,1.90
2022-08-30T04:23:02.619Z,1.63
2022-08-30T04:25:35.847Z,1.88
2022-08-30T04:28:10.789Z,1.80
2022-08-30T04:30:45.463Z,2.15
2022-08-30T04:33:19.218Z,1.90
2022-08-30T04:35:52.189Z,1.88
2022-08-30T04:38:30.368Z,1.85
2022-08-30T04:41:03.817Z,1.85
2022-08-30T04:43:38.290Z,1.88
2022-08-30T04:46:11.521Z,1.48
2022-08-30T04:48:45.089Z,1.70
2022-08-30T04:51:18.959Z,1.92
2022-08-30T04:53:51.704Z,1.98
2022-08-30T04:56:26.086Z,1.40
2022-08-30T04:59:00.198Z,1.40
2022-08-30T05:01:45.063Z,1.60
2022-08-30T05:04:18.621Z,1.67
2022-08-30T05:06:51.335Z,1.95
2022-08-30T05:09:24.507Z,2.30
2022-08-30T05:11:58.378Z,1.67
2022-08-30T05:14:34.313Z,1.98
2022-08-30T05:17:06.998Z,1.77
2022-08-30T05:22:12.789Z,1.80
2022-08-30T05:27:18.693Z,2.20
2022-08-30T05:29:54.492Z,2.08
2022-08-30T05:32:27.151Z,2.33
2022-08-30T05:34:59.878Z,2.30
2022-08-30T05:37:32.610Z,2.53
2022-08-30T05:40:07.475Z,1.90
2022-08-30T05:42:44.282Z,3.47
2022-08-30T05:47:51.611Z,2.92
2022-08-30T05:50:24.379Z,2.70
2022-08-30T05:52:57.093Z,2.78
2022-08-30T05:55:29.963Z,2.55
2022-08-30T05:58:02.964Z,2.42
2022-08-30T06:03:12.752Z,2.30
2022-08-30T06:08:19.808Z,2.53
2022-08-30T06:10:52.873Z,2.58
2022-08-30T06:15:59.905Z,2.85
2022-08-30T06:18:32.780Z,2.95
2022-08-30T06:21:06.073Z,2.75
2022-08-30T06:23:38.777Z,2.45
2022-08-30T06:26:12.724Z,2.65
2022-08-30T06:28:45.770Z,2.65
2022-08-30T06:33:54.109Z,2.22
2022-08-30T06:36:27.353Z,2.58
2022-08-30T06:39:00.372Z,2.95
2022-08-30T06:41:35.319Z,2.20
2022-08-30T06:44:09.754Z,3.05
2022-08-30T06:46:44.197Z,2.92
2022-08-30T06:49:17.222Z,2.83
2022-08-30T06:54:24.307Z,2.85
2022-08-30T06:56:58.616Z,3.30
2022-08-30T06:59:32.449Z,3.13
2022-08-30T07:02:07.224Z,3.20
2022-08-30T07:04:40.066Z,2.83
2022-08-30T07:07:13.076Z,5.00
2022-08-30T07:12:18.469Z,3.80
2022-08-30T07:14:51.546Z,5.00
2022-08-30T07:20:18.380Z,4.00
2022-08-30T07:22:55.727Z,4.03
2022-08-30T07:25:28.454Z,4.45
2022-08-30T07:28:02.918Z,4.38
2022-08-30T07:30:36.545Z,3.78
2022-08-30T07:33:10.781Z,4.28
2022-08-30T07:35:43.771Z,3.55
2022-08-30T07:40:49.723Z,4.50
2022-08-30T07:45:56.046Z,3.50
2022-08-30T07:48:30.605Z,3.42
2022-08-30T07:51:05.500Z,4.30
2022-08-30T07:53:38.436Z,3.80
2022-08-30T07:56:12.076Z,3.33
2022-08-30T07:58:44.825Z,4.20
2022-08-30T08:01:19.588Z,3.40
2022-08-30T08:03:53.859Z,3.58
2022-08-30T08:06:27.614Z,4.03
2022-08-30T08:09:07.968Z,3.33
2022-08-30T08:16:51.700Z,3.05
2022-08-30T08:19:26.287Z,2.80
2022-08-30T08:22:20.847Z,2.20
2022-08-30T08:24:53.172Z,2.00
2022-08-30T08:27:25.851Z,1.73
2022-08-30T08:29:59.328Z,1.55
2022-08-30T08:32:32.070Z,1.52
2022-08-30T08:35:06.515Z,1.33
2022-08-30T08:37:39.396Z,1.10
2022-08-30T08:40:16.751Z,1.52
2022-08-30T08:43:00.284Z,1.23
2022-08-30T08:45:52.922Z,1.20
2022-08-30T08:48:58.630Z,1.17
2022-08-30T08:51:52.212Z,1.50
2022-08-30T08:54:34.022Z,1.42
2022-08-30T08:57:06.865Z,1.27
2022-08-30T08:59:39.712Z,1.02
2022-08-30T09:02:23.949Z,1.00
2022-08-30T09:05:01.661Z,0.98
2022-08-30T09:07:42.011Z,0.90
2022-08-30T09:10:18.269Z,1.00
2022-08-30T09:13:00.087Z,1.23
2022-08-30T09:15:38.074Z,0.93
2022-08-30T09:18:19.865Z,1.00
2022-08-30T09:20:53.296Z,0.93
2022-08-30T09:23:32.472Z,1.13
2022-08-30T09:26:08.916Z,1.05
2022-08-30T09:28:46.480Z,1.00
2022-08-30T09:31:25.487Z,0.98
2022-08-30T09:34:03.631Z,1.02
2022-08-30T09:36:43.735Z,1.10
2022-08-30T09:39:20.511Z,1.02
2022-08-30T09:41:55.414Z,1.17
2022-08-30T09:44:29.638Z,1.50
2022-08-30T09:47:05.050Z,1.05
2022-08-30T09:49:39.928Z,1.20
2022-08-30T09:52:34.852Z,1.10
2022-08-30T09:55:23.069Z,1.10
2022-08-30T09:58:08.546Z,1.73
2022-08-30T10:00:51.606Z,1.20
2022-08-30T10:03:40.124Z,1.70
2022-08-30T10:06:24.085Z,0.93
2022-08-30T10:09:12.768Z,1.60
2022-08-30T10:11:56.899Z,1.10
2022-08-30T10:14:42.878Z,1.10
2022-08-30T10:17:27.516Z,1.05
2022-08-30T10:20:12.718Z,1.35
2022-08-30T10:22:51.777Z,1.67
2022-08-30T10:25:29.022Z,1.42
2022-08-30T10:28:11.272Z,1.20
2022-08-30T10:30:54.189Z,0.93
2022-08-30T10:33:34.476Z,1.40
2022-08-30T10:36:11.581Z,1.77
2022-08-30T10:38:50.003Z,0.98
2022-08-30T10:41:29.802Z,1.00
2022-08-30T10:44:12.459Z,1.05
2022-08-30T10:46:58.871Z,1.05
2022-08-30T10:49:36.713Z,1.23
2022-08-30T10:52:26.780Z,1.52
2022-08-30T10:55:03.450Z,1.08
2022-08-30T10:57:36.219Z,1.45
2022-08-30T11:00:14.779Z,1.00
2022-08-30T11:03:25.114Z,0.80
2022-08-30T11:06:17.642Z,1.30
2022-08-30T11:09:05.210Z,1.55
2022-08-30T11:11:55.034Z,1.77
2022-08-30T11:14:28.185Z,2.40
2022-08-30T11:19:39.415Z,1.17
2022-08-30T11:22:16.995Z,1.27
2022-08-30T11:25:09.883Z,1.30
2022-08-30T11:27:47.601Z,1.38
2022-08-30T11:30:57.647Z,1.27
2022-08-30T11:33:46.588Z,1.50
2022-08-30T11:37:09.759Z,1.60
2022-08-30T11:39:57.331Z,1.05
2022-08-30T11:42:37.317Z,1.48
2022-08-30T11:46:00.266Z,1.92
2022-08-30T11:48:53.735Z,1.45
2022-08-30T11:51:50.870Z,1.20
2022-08-30T11:54:53.040Z,1.23
2022-08-30T11:57:32.201Z,1.20
2022-08-30T12:00:10.597Z,1.50
2022-08-30T12:02:49.015Z,0.90
2022-08-30T12:05:51.329Z,1.00
2022-08-30T12:09:02.275Z,1.38
2022-08-30T12:12:04.816Z,1.63
2022-08-30T12:14:42.168Z,1.30
2022-08-30T12:17:39.943Z,1.13
2022-08-30T12:20:19.490Z,1.40
2022-08-30T12:22:56.292Z,1.35
2022-08-30T12:25:32.665Z,1.48
2022-08-30T12:28:21.542Z,1.63
2022-08-30T12:30:55.484Z,1.55
2022-08-30T12:33:36.604Z,1.42
2022-08-30T12:36:16.949Z,1.00
2022-08-30T12:38:51.488Z,1.20
2022-08-30T12:41:25.431Z,1.35
2022-08-30T12:43:59.046Z,1.20
2022-08-30T12:46:32.159Z,1.63
2022-08-30T12:49:05.337Z,1.40
2022-08-30T12:51:41.232Z,1.33
2022-08-30T12:54:18.541Z,1.15
2022-08-30T12:57:03.665Z,1.02
2022-08-30T12:59:59.283Z,1.67
2022-08-30T13:02:45.754Z,1.60
2022-08-30T13:05:34.683Z,1.80
2022-08-30T13:08:15.373Z,1.70
2022-08-30T13:11:04.399Z,1.90
2022-08-30T13:13:44.519Z,1.33
2022-08-30T13:16:29.376Z,1.98
2022-08-30T13:19:27.423Z,1.55
2022-08-30T13:22:01.578Z,2.05
2022-08-30T13:24:34.383Z,1.70
2022-08-30T13:29:42.439Z,2.00
2022-08-30T13:32:16.635Z,1.60
2022-08-30T13:34:49.665Z,1.95
2022-08-30T13:40:17.970Z,1.60
2022-08-30T13:42:52.217Z,1.60
2022-08-30T13:45:41.386Z,1.52
2022-08-30T13:48:17.413Z,1.50
2022-08-30T13:50:57.728Z,1.40
2022-08-30T13:56:24.669Z,1.67
2022-08-30T13:58:59.464Z,1.50
2022-08-30T14:02:07.439Z,1.55
2022-08-30T14:04:25.178Z,1.60
2022-08-30T14:09:52.070Z,1.20
2022-08-30T14:15:20.220Z,1.58
2022-08-30T14:17:52.910Z,1.40
2022-08-30T14:20:25.831Z,1.65
2022-08-30T14:22:59.559Z,1.40
2022-08-30T14:28:04.982Z,1.67
2022-08-30T14:30:40.391Z,1.48
2022-08-30T14:33:15.589Z,1.10
2022-08-30T14:35:48.354Z,1.70
2022-08-30T14:38:22.042Z,1.50
2022-08-30T14:40:55.132Z,1.67
2022-08-30T14:43:27.832Z,2.20
2022-08-30T14:46:02.738Z,1.27
2022-08-30T14:48:37.773Z,1.80
2022-08-30T14:51:16.588Z,1.27
2022-08-30T14:53:53.299Z,1.30
2022-08-30T14:56:26.020Z,1.67
2022-08-30T15:01:37.085Z,1.17
2022-08-30T15:04:11.232Z,1.50
2022-08-30T15:06:46.020Z,1.35
2022-08-30T15:09:23.068Z,1.67
2022-08-30T15:11:59.499Z,1.92
2022-08-30T15:14:33.499Z,1.50
2022-08-30T15:17:07.788Z,1.40
2022-08-30T15:19:40.542Z,1.77
2022-08-30T15:22:14.335Z,1.70
2022-08-30T15:24:48.804Z,1.70
2022-08-30T15:27:21.688Z,1.20
2022-08-30T15:32:29.296Z,1.30
2022-08-30T15:35:05.588Z,1.80
2022-08-30T15:37:40.552Z,1.80
2022-08-30T15:40:13.701Z,2.13
2022-08-30T15:42:46.997Z,1.98
2022-08-30T15:45:20.005Z,1.67
2022-08-30T15:50:27.568Z,1.55
2022-08-30T15:53:01.994Z,1.38
2022-08-30T15:55:34.794Z,1.20
2022-08-30T16:00:44.802Z,1.50
2022-08-30T16:03:19.077Z,1.48
2022-08-30T16:05:52.942Z,1.67
2022-08-30T16:08:26.113Z,1.17
2022-08-30T16:10:58.768Z,1.85
2022-08-30T16:13:32.541Z,1.17
2022-08-30T16:16:08.818Z,1.80
2022-08-30T16:18:42.970Z,1.77
2022-08-30T16:21:18.013Z,1.50
2022-08-30T16:23:50.974Z,1.20
2022-08-30T16:26:24.372Z,1.55
2022-08-30T16:28:58.076Z,2.00
2022-08-30T16:31:32.722Z,1.67
2022-08-30T16:34:06.912Z,1.85
2022-08-30T16:36:40.667Z,1.55
2022-08-30T16:41:46.752Z,1.30
2022-08-30T16:44:21.041Z,1.27
2022-08-30T16:46:54.086Z,1.30
2022-08-30T16:49:28.209Z,1.40
2022-08-30T16:52:01.317Z,1.00
2022-08-30T16:54:34.130Z,1.10
2022-08-30T16:57:06.868Z,1.00
2022-08-30T16:59:39.537Z,1.20
2022-08-30T17:02:12.293Z,1.23
2022-08-30T17:04:49.808Z,1.45
2022-08-30T17:07:25.220Z,1.08
2022-08-30T17:12:31.105Z,2.72
2022-08-30T17:15:05.554Z,1.70
2022-08-30T17:17:39.040Z,1.40
2022-08-30T17:20:18.234Z,1.40
2022-08-30T17:22:50.983Z,1.20
2022-08-30T17:25:25.765Z,1.38
2022-08-30T17:28:02.583Z,1.17
2022-08-30T17:30:36.553Z,1.27
2022-08-30T17:33:11.108Z,1.65
2022-08-30T17:35:45.546Z,1.40
2022-08-30T17:38:19.413Z,1.20
2022-08-30T17:40:52.460Z,1.42
2022-08-30T17:46:05.428Z,1.90
2022-08-30T17:48:39.003Z,1.27
2022-08-30T17:51:14.389Z,1.08
2022-08-30T17:53:47.343Z,1.65
2022-08-30T17:56:23.320Z,1.38
2022-08-30T17:59:06.025Z,1.00
2022-08-30T18:01:41.662Z,1.30
2022-08-30T18:04:20.471Z,1.40
2022-08-30T18:06:54.923Z,1.08
2022-08-30T18:09:31.800Z,2.03
2022-08-30T18:12:06.771Z,1.58
2022-08-30T18:14:40.067Z,1.30
2022-08-30T18:17:12.746Z,1.85
2022-08-30T18:19:46.695Z,1.10
2022-08-30T18:22:20.992Z,1.17
2022-08-30T18:24:53.674Z,1.13
2022-08-30T18:27:28.299Z,1.25
2022-08-30T18:30:01.073Z,1.30
2022-08-30T18:32:36.058Z,1.08
2022-08-30T18:35:11.190Z,1.17
2022-08-30T18:37:45.339Z,1.30
2022-08-30T18:40:19.049Z,1.13
2022-08-30T18:42:51.803Z,0.90
2022-08-30T18:45:25.058Z,1.38
2022-08-30T18:47:58.787Z,1.20
2022-08-30T18:50:32.184Z,1.02
2022-08-30T18:53:06.266Z,1.35
2022-08-30T18:55:41.912Z,1.50
2022-08-30T19:00:51.115Z,1.60
2022-08-30T19:03:24.007Z,1.48
2022-08-30T19:08:31.379Z,1.23
2022-08-30T19:11:05.037Z,1.63
2022-08-30T19:13:40.350Z,1.60
2022-08-30T19:16:13.834Z,1.23
2022-08-30T19:18:46.533Z,1.50
2022-08-30T19:21:21.407Z,1.40
2022-08-30T19:23:55.739Z,1.42
2022-08-30T19:26:28.474Z,1.40
2022-08-30T19:29:02.280Z,1.63
2022-08-30T19:31:35.601Z,1.63
2022-08-30T19:34:08.329Z,1.10
2022-08-30T19:36:41.063Z,1.50
2022-08-30T19:39:15.380Z,1.20
2022-08-30T19:41:50.236Z,1.15
2022-08-30T19:44:22.945Z,1.35
2022-08-30T19:46:56.887Z,1.48
2022-08-30T19:49:30.750Z,1.15
2022-08-30T19:52:04.773Z,1.10
2022-08-30T19:54:39.040Z,1.63
2022-08-30T19:57:14.274Z,1.40
2022-08-30T20:02:20.808Z,1.30
2022-08-30T20:04:53.612Z,1.17
2022-08-30T20:07:28.293Z,1.65
2022-08-30T20:10:05.618Z,1.60
2022-08-30T20:12:39.862Z,1.90
2022-08-30T20:15:19.430Z,1.30
2022-08-30T20:18:14.505Z,1.60
2022-08-30T20:20:49.932Z,2.00
2022-08-30T20:23:25.683Z,1.48
2022-08-30T20:26:00.898Z,1.77
2022-08-30T20:28:33.967Z,1.80
2022-08-30T20:31:08.431Z,1.40
2022-08-30T20:33:41.365Z,1.42
2022-08-30T20:36:14.030Z,1.50
2022-08-30T20:38:47.630Z,1.80
2022-08-30T20:41:22.241Z,1.63
2022-08-30T20:43:55.091Z,1.80
2022-08-30T20:46:33.391Z,1.65
2022-08-30T20:49:06.851Z,1.67
2022-08-30T20:51:39.862Z,1.30
2022-08-30T20:54:13.822Z,1.42
2022-08-30T20:56:47.914Z,1.85
2022-08-30T20:59:21.923Z,1.15
2022-08-30T21:01:55.096Z,1.48
2022-08-30T21:04:28.208Z,1.05
2022-08-30T21:07:01.126Z,1.40
2022-08-30T21:12:08.386Z,1.20
2022-08-30T21:14:41.351Z,1.83
2022-08-30T21:17:14.091Z,1.58
2022-08-30T21:19:47.292Z,1.10
2022-08-30T21:22:20.115Z,1.48
2022-08-30T21:24:53.953Z,1.80
2022-08-30T21:27:28.160Z,1.15
2022-08-30T21:30:01.505Z,1.25
2022-08-30T21:32:34.767Z,1.17
2022-08-30T21:35:22.952Z,1.45
2022-08-30T21:37:55.868Z,1.60
2022-08-30T21:43:06.038Z,1.40
2022-08-30T21:45:39.667Z,1.38
2022-08-30T21:48:13.983Z,1.20
2022-08-30T21:50:47.050Z,1.35
2022-08-30T21:53:20.158Z,1.45
2022-08-30T21:55:53.117Z,1.77
2022-08-30T21:58:27.767Z,1.40
2022-08-30T22:01:00.506Z,1.65
2022-08-30T22:03:33.239Z,1.35
2022-08-30T22:06:08.034Z,1.30
2022-08-30T22:08:43.124Z,1.50
2022-08-30T22:11:18.294Z,1.60
2022-08-30T22:13:54.287Z,1.10
2022-08-30T22:16:27.961Z,1.08
2022-08-30T22:19:01.907Z,1.55
2022-08-30T22:21:36.765Z,1.52
2022-08-30T22:24:10.490Z,1.50
2022-08-30T22:26:43.392Z,1.17
2022-08-30T22:29:17.590Z,1.25
2022-08-30T22:31:50.458Z,1.63
2022-08-30T22:34:23.385Z,1.25
2022-08-30T22:39:28.743Z,1.15
2022-08-30T22:42:01.853Z,1.45
2022-08-30T22:47:08.739Z,1.58
2022-08-30T22:52:14.346Z,1.63
2022-08-30T22:54:48.171Z,1.15
2022-08-30T22:57:20.853Z,1.38
2022-08-30T22:59:55.120Z,1.30
2022-08-30T23:02:27.864Z,1.52
2022-08-30T23:05:01.552Z,1.20
2022-08-30T23:07:34.826Z,0.98
2022-08-30T23:10:09.151Z,1.30
2022-08-30T23:12:41.886Z,1.20
2022-08-30T23:15:16.899Z,1.15
2022-08-30T23:17:50.440Z,1.00
2022-08-30T23:20:23.997Z,1.30
2022-08-30T23:22:58.808Z,1.05
2022-08-30T23:25:52.031Z,0.90
2022-08-30T23:28:42.865Z,1.13
2022-08-30T23:31:35.743Z,1.08
2022-08-30T23:34:26.180Z,0.90
2022-08-30T23:37:16.423Z,0.90
2022-08-30T23:40:07.179Z,1.30
2022-08-30T23:42:57.549Z,0.85
2022-08-30T23:45:48.090Z,1.20
2022-08-30T23:48:39.831Z,1.20
2022-08-30T23:51:41.171Z,0.70
2022-08-30T23:54:31.659Z,1.05
2022-08-30T23:57:23.624Z,0.93
